createdAt,value
2023-02-15T00:01:09.476Z,0.60
2023-02-15T00:03:54.950Z,0.60
2023-02-15T00:06:40.458Z,0.50
2023-02-15T00:09:25.792Z,0.60
2023-02-15T00:12:11.600Z,1.10
2023-02-15T00:14:57.130Z,0.60
2023-02-15T00:17:42.731Z,0.40
2023-02-15T00:20:28.239Z,0.40
2023-02-15T00:23:13.720Z,0.40
2023-02-15T00:26:06.466Z,0.40
2023-02-15T00:28:52.179Z,0.40
2023-02-15T00:31:38.204Z,0.40
2023-02-15T00:34:26.807Z,0.30
2023-02-15T00:37:12.211Z,1.00
2023-02-15T00:39:57.707Z,1.10
2023-02-15T00:42:43.230Z,0.30
2023-02-15T00:45:29.012Z,0.30
2023-02-15T00:48:14.362Z,2.70
2023-02-15T00:51:00.954Z,0.20
2023-02-15T00:53:46.424Z,0.30
2023-02-15T00:56:31.719Z,0.20
2023-02-15T00:59:17.067Z,0.20
2023-02-15T01:02:02.677Z,0.00
2023-02-15T01:04:48.393Z,0.00
2023-02-15T01:07:33.844Z,0.10
2023-02-15T01:10:19.743Z,0.00
2023-02-15T01:13:05.238Z,0.00
2023-02-15T01:15:57.008Z,-0.10
2023-02-15T01:18:43.111Z,-0.30
2023-02-15T01:21:28.976Z,2.50
2023-02-15T01:24:15.044Z,-0.10
2023-02-15T01:27:02.150Z,-0.10
2023-02-15T01:29:48.542Z,-0.10
2023-02-15T01:32:34.083Z,0.10
2023-02-15T01:35:19.924Z,0.00
2023-02-15T01:38:05.194Z,0.70
2023-02-15T01:40:54.691Z,-0.10
2023-02-15T01:43:46.919Z,-0.20
2023-02-15T01:46:43.777Z,-0.30
2023-02-15T01:49:29.438Z,-0.20
2023-02-15T01:52:18.568Z,-0.30
2023-02-15T01:55:07.169Z,-0.30
2023-02-15T01:57:53.740Z,-0.30
2023-02-15T02:00:39.059Z,-0.10
2023-02-15T02:03:39.827Z,0.00
2023-02-15T02:06:27.059Z,-0.10
2023-02-15T02:09:13.794Z,-0.10
2023-02-15T02:11:59.848Z,-0.20
2023-02-15T02:14:48.174Z,-0.30
2023-02-15T02:17:40.152Z,-0.40
2023-02-15T02:20:39.022Z,-0.40
2023-02-15T02:23:39.392Z,-0.20
2023-02-15T02:26:27.746Z,-0.30
2023-02-15T02:30:06.286Z,-0.50
2023-02-15T02:33:42.184Z,-0.30
2023-02-15T02:36:49.353Z,-0.40
2023-02-15T02:39:56.747Z,-0.40
2023-02-15T02:43:09.368Z,-0.50
2023-02-15T02:46:04.330Z,-0.40
2023-02-15T02:48:50.924Z,-0.40
2023-02-15T02:51:36.600Z,-0.40
2023-02-15T02:54:22.026Z,-0.40
2023-02-15T02:57:10.331Z,-0.30
2023-02-15T02:59:58.423Z,-0.40
2023-02-15T03:02:48.465Z,-0.50
2023-02-15T03:05:36.673Z,-0.40
2023-02-15T03:08:25.408Z,-0.30
2023-02-15T03:11:12.746Z,-0.40
2023-02-15T03:13:59.335Z,-0.50
2023-02-15T03:16:48.736Z,-0.50
2023-02-15T03:19:37.928Z,-0.50
2023-02-15T03:23:05.947Z,-0.50
2023-02-15T03:25:57.392Z,-0.60
2023-02-15T03:28:46.615Z,-0.60
2023-02-15T03:31:35.896Z,-0.60
2023-02-15T03:34:21.774Z,-0.60
2023-02-15T03:37:33.314Z,-0.50
2023-02-15T03:40:50.657Z,-0.60
2023-02-15T03:43:53.090Z,0.30
2023-02-15T03:46:48.842Z,-0.70
2023-02-15T03:49:46.753Z,-0.50
2023-02-15T03:52:34.935Z,-0.50
2023-02-15T03:55:20.433Z,-0.60
2023-02-15T03:58:24.366Z,-0.70
2023-02-15T04:01:44.454Z,-1.00
2023-02-15T04:04:33.329Z,-0.70
2023-02-15T04:07:18.803Z,-0.90
2023-02-15T04:10:22.984Z,-0.70
2023-02-15T04:13:08.349Z,-0.90
2023-02-15T04:16:05.091Z,-0.70
2023-02-15T04:19:09.514Z,-0.70
2023-02-15T04:22:13.380Z,-0.80
2023-02-15T04:25:10.508Z,-0.80
2023-02-15T04:27:56.031Z,-0.90
2023-02-15T04:30:41.448Z,-0.80
2023-02-15T04:33:26.863Z,-0.90
2023-02-15T04:36:12.471Z,-0.90
2023-02-15T04:38:57.723Z,-0.20
2023-02-15T04:41:43.869Z,-0.90
2023-02-15T04:44:29.230Z,-0.90
2023-02-15T04:47:15.017Z,-1.00
2023-02-15T04:50:00.446Z,-1.10
2023-02-15T04:52:45.705Z,-1.00
2023-02-15T04:55:31.077Z,-1.10
2023-02-15T04:58:16.482Z,-0.70
2023-02-15T05:01:02.773Z,-1.10
2023-02-15T05:03:48.057Z,0.00
2023-02-15T05:06:33.460Z,-1.10
2023-02-15T05:09:19.188Z,-0.90
2023-02-15T05:12:04.833Z,-1.10
2023-02-15T05:14:50.218Z,-1.30
2023-02-15T05:17:35.617Z,-1.00
2023-02-15T05:20:21.302Z,-1.10
2023-02-15T05:23:06.851Z,-2.00
2023-02-15T05:26:11.085Z,-1.00
2023-02-15T05:28:56.344Z,-0.90
2023-02-15T05:31:42.297Z,-0.90
2023-02-15T05:34:28.445Z,-1.00
2023-02-15T05:37:14.044Z,-1.00
2023-02-15T05:39:59.358Z,-1.10
2023-02-15T05:42:45.105Z,-1.10
2023-02-15T05:45:31.110Z,-1.40
2023-02-15T05:48:17.768Z,-0.80
2023-02-15T05:51:09.219Z,-1.20
2023-02-15T05:53:54.572Z,-1.20
2023-02-15T05:56:40.046Z,-1.20
2023-02-15T05:59:25.529Z,-1.20
2023-02-15T06:02:11.189Z,-1.20
2023-02-15T06:04:56.340Z,-1.10
2023-02-15T06:07:45.862Z,-1.00
2023-02-15T06:10:31.486Z,-1.00
2023-02-15T06:13:17.083Z,-1.10
2023-02-15T06:16:03.127Z,-1.10
2023-02-15T06:18:48.840Z,-0.70
2023-02-15T06:21:34.284Z,-1.10
2023-02-15T06:24:19.690Z,-1.20
2023-02-15T06:27:05.244Z,-1.20
2023-02-15T06:29:50.684Z,-1.30
2023-02-15T06:32:37.064Z,-1.30
2023-02-15T06:35:23.014Z,-1.20
2023-02-15T06:38:08.833Z,-1.20
2023-02-15T06:40:54.188Z,-1.30
2023-02-15T06:43:41.001Z,-1.20
2023-02-15T06:46:26.903Z,-1.20
2023-02-15T06:49:12.399Z,-1.30
2023-02-15T06:51:58.127Z,1.10
2023-02-15T06:54:43.401Z,-1.20
2023-02-15T06:57:28.696Z,-1.20
2023-02-15T07:00:14.999Z,-1.30
2023-02-15T07:03:00.971Z,-1.10
2023-02-15T07:05:46.576Z,-1.10
2023-02-15T07:08:32.171Z,-1.10
2023-02-15T07:11:52.899Z,-1.30
2023-02-15T07:14:38.199Z,-1.10
2023-02-15T07:17:38.807Z,-1.00
2023-02-15T07:20:25.170Z,-0.90
2023-02-15T07:23:10.717Z,-0.90
2023-02-15T07:28:39.874Z,-1.00
2023-02-15T07:31:25.298Z,-0.90
2023-02-15T07:34:10.972Z,-0.80
2023-02-15T07:36:56.506Z,-0.70
2023-02-15T07:39:41.831Z,-0.60
2023-02-15T07:42:27.374Z,-0.40
2023-02-15T07:45:13.540Z,-0.60
2023-02-15T07:47:58.783Z,-0.40
2023-02-15T07:50:44.320Z,-0.20
2023-02-15T07:53:31.079Z,-0.10
2023-02-15T07:56:16.717Z,-0.30
2023-02-15T07:59:04.171Z,0.10
2023-02-15T08:01:49.690Z,0.20
2023-02-15T08:04:35.140Z,0.30
2023-02-15T08:07:20.707Z,0.40
2023-02-15T08:10:07.115Z,0.50
2023-02-15T08:12:52.362Z,0.80
2023-02-15T08:15:38.009Z,0.90
2023-02-15T08:18:23.640Z,0.80
2023-02-15T08:21:09.762Z,1.00
2023-02-15T08:23:56.055Z,1.00
2023-02-15T08:26:42.593Z,1.10
2023-02-15T08:29:29.851Z,1.40
2023-02-15T08:32:15.441Z,1.50
2023-02-15T08:35:00.795Z,1.90
2023-02-15T08:37:46.503Z,1.70
2023-02-15T08:40:31.772Z,1.70
2023-02-15T08:43:17.333Z,2.00
2023-02-15T08:46:03.025Z,2.20
2023-02-15T08:48:48.631Z,2.30
2023-02-15T08:51:36.693Z,2.50
2023-02-15T08:54:22.876Z,2.60
2023-02-15T08:57:08.402Z,2.50
2023-02-15T08:59:56.001Z,2.50
2023-02-15T09:02:41.371Z,2.80
2023-02-15T09:05:26.737Z,3.00
2023-02-15T09:08:12.407Z,3.10
2023-02-15T09:11:12.471Z,3.10
2023-02-15T09:14:02.392Z,3.30
2023-02-15T09:16:50.358Z,3.50
2023-02-15T09:19:36.176Z,3.70
2023-02-15T09:22:21.569Z,3.60
2023-02-15T09:25:07.572Z,4.00
2023-02-15T09:27:53.312Z,4.30
2023-02-15T09:30:38.697Z,4.30
2023-02-15T09:33:26.186Z,5.20
2023-02-15T09:36:33.040Z,4.70
2023-02-15T09:39:26.312Z,4.60
2023-02-15T09:42:23.462Z,5.20
2023-02-15T09:45:23.179Z,5.30
2023-02-15T09:48:35.439Z,5.60
2023-02-15T09:51:55.899Z,5.90
2023-02-15T09:54:47.722Z,5.90
2023-02-15T09:58:03.585Z,6.30
2023-02-15T10:01:03.678Z,6.40
2023-02-15T10:03:56.543Z,7.40
2023-02-15T10:07:02.761Z,6.80
2023-02-15T10:10:06.079Z,7.20
2023-02-15T10:13:03.349Z,7.20
2023-02-15T10:16:03.982Z,7.40
2023-02-15T10:19:02.352Z,7.60
2023-02-15T10:22:13.386Z,7.70
2023-02-15T10:25:24.799Z,7.80
2023-02-15T10:28:21.617Z,8.00
2023-02-15T10:31:28.314Z,8.40
2023-02-15T10:34:29.117Z,8.80
2023-02-15T10:37:41.224Z,9.10
2023-02-15T10:40:42.329Z,9.40
2023-02-15T10:43:30.721Z,9.70
2023-02-15T10:46:34.634Z,9.70
2023-02-15T10:49:31.068Z,10.10
2023-02-15T10:52:33.385Z,10.10
2023-02-15T10:55:25.227Z,10.30
2023-02-15T10:58:27.807Z,10.60
2023-02-15T11:01:35.229Z,10.90
2023-02-15T11:04:51.941Z,11.30
2023-02-15T11:07:44.071Z,11.60
2023-02-15T11:10:48.050Z,11.90
2023-02-15T11:13:39.387Z,12.20
2023-02-15T11:16:55.960Z,12.60
2023-02-15T11:19:58.260Z,13.00
2023-02-15T11:22:43.704Z,13.40
2023-02-15T11:25:35.293Z,13.50
2023-02-15T11:28:28.570Z,13.40
2023-02-15T11:31:18.692Z,13.80
2023-02-15T11:34:13.172Z,13.30
2023-02-15T11:37:04.812Z,13.30
2023-02-15T11:39:55.627Z,13.70
2023-02-15T11:42:42.799Z,13.30
2023-02-15T11:45:35.414Z,13.70
2023-02-15T11:48:20.655Z,14.80
2023-02-15T11:51:06.782Z,14.50
2023-02-15T11:53:52.966Z,14.90
2023-02-15T11:56:38.616Z,14.70
2023-02-15T11:59:35.265Z,14.90
2023-02-15T12:02:23.182Z,15.50
2023-02-15T12:05:15.855Z,15.80
2023-02-15T12:08:18.988Z,15.90
2023-02-15T12:11:16.475Z,14.70
2023-02-15T12:14:06.206Z,15.20
2023-02-15T12:16:57.509Z,15.50
2023-02-15T12:19:42.774Z,15.50
2023-02-15T12:22:34.851Z,15.20
2023-02-15T12:25:28.771Z,15.20
2023-02-15T12:28:34.215Z,15.40
2023-02-15T12:31:31.774Z,16.00
2023-02-15T12:34:40.469Z,15.80
2023-02-15T12:37:29.650Z,15.70
2023-02-15T12:40:24.703Z,16.10
2023-02-15T12:43:28.115Z,16.10
2023-02-15T12:46:27.592Z,16.60
2023-02-15T12:49:21.319Z,16.90
2023-02-15T12:52:26.092Z,16.10
2023-02-15T12:55:26.484Z,16.30
2023-02-15T12:58:20.841Z,16.70
2023-02-15T13:01:25.394Z,16.50
2023-02-15T13:04:28.248Z,17.00
2023-02-15T13:07:14.730Z,17.00
2023-02-15T13:10:00.095Z,17.20
2023-02-15T13:12:48.322Z,16.30
2023-02-15T13:15:47.568Z,16.80
2023-02-15T13:18:37.590Z,17.40
2023-02-15T13:21:26.728Z,17.90
2023-02-15T13:24:30.560Z,17.80
2023-02-15T13:27:21.201Z,18.00
2023-02-15T13:30:32.213Z,17.40
2023-02-15T13:33:27.232Z,17.50
2023-02-15T13:36:35.871Z,18.20
2023-02-15T13:39:40.534Z,18.50
2023-02-15T13:42:48.638Z,18.40
2023-02-15T13:45:45.341Z,18.80
2023-02-15T13:48:47.191Z,18.90
2023-02-15T13:51:47.065Z,19.10
2023-02-15T13:55:10.087Z,19.00
2023-02-15T13:58:08.098Z,19.20
2023-02-15T14:01:09.859Z,19.50
2023-02-15T14:03:57.972Z,19.80
2023-02-15T14:07:18.602Z,19.80
2023-02-15T14:10:20.758Z,20.10
2023-02-15T14:13:52.113Z,19.90
2023-02-15T14:17:06.252Z,20.30
2023-02-15T14:20:18.196Z,20.70
2023-02-15T14:23:12.143Z,20.60
2023-02-15T14:26:02.758Z,19.90
2023-02-15T14:29:02.108Z,19.80
2023-02-15T14:31:53.264Z,20.10
2023-02-15T14:35:00.303Z,19.90
2023-02-15T14:37:59.863Z,19.40
2023-02-15T14:41:04.586Z,18.60
2023-02-15T14:44:29.759Z,18.40
2023-02-15T14:47:39.624Z,18.50
2023-02-15T14:50:31.106Z,18.40
2023-02-15T14:53:23.358Z,18.70
2023-02-15T14:56:11.732Z,20.10
2023-02-15T14:59:00.214Z,19.10
2023-02-15T15:02:04.834Z,18.70
2023-02-15T15:05:07.117Z,17.70
2023-02-15T15:07:55.572Z,17.90
2023-02-15T15:10:46.956Z,18.40
2023-02-15T15:13:32.143Z,18.90
2023-02-15T15:16:29.594Z,18.90
2023-02-15T15:19:54.040Z,18.50
2023-02-15T15:22:39.494Z,18.50
2023-02-15T15:25:36.479Z,18.70
2023-02-15T15:28:34.157Z,17.90
2023-02-15T15:31:32.335Z,17.40
2023-02-15T15:34:35.539Z,16.80
2023-02-15T15:37:47.686Z,15.70
2023-02-15T15:40:36.100Z,15.20
2023-02-15T15:43:29.045Z,14.80
2023-02-15T15:46:23.327Z,14.40
2023-02-15T15:49:10.651Z,14.30
2023-02-15T15:51:56.072Z,15.20
2023-02-15T15:54:43.116Z,13.80
2023-02-15T15:57:33.839Z,13.60
2023-02-15T16:00:40.793Z,13.40
2023-02-15T16:03:28.053Z,13.10
2023-02-15T16:06:15.869Z,13.00
2023-02-15T16:09:21.632Z,12.80
2023-02-15T16:12:17.004Z,12.60
2023-02-15T16:15:27.493Z,12.40
2023-02-15T16:18:20.981Z,12.30
2023-02-15T16:21:06.309Z,12.10
2023-02-15T16:24:19.951Z,11.90
2023-02-15T16:27:08.047Z,11.70
2023-02-15T16:29:53.665Z,11.40
2023-02-15T16:32:39.224Z,13.50
2023-02-15T16:35:24.943Z,11.20
2023-02-15T16:38:14.469Z,11.00
2023-02-15T16:41:02.409Z,10.90
2023-02-15T16:43:50.437Z,10.70
2023-02-15T16:46:43.851Z,10.80
2023-02-15T16:49:30.634Z,10.50
2023-02-15T16:52:22.332Z,10.50
2023-02-15T16:55:07.739Z,10.30
2023-02-15T16:57:58.171Z,10.20
2023-02-15T17:00:43.853Z,10.10
2023-02-15T17:03:30.351Z,10.00
2023-02-15T17:06:27.751Z,9.90
2023-02-15T17:09:23.318Z,9.80
2023-02-15T17:12:10.546Z,9.70
2023-02-15T17:14:56.380Z,9.60
2023-02-15T17:17:42.965Z,9.50
2023-02-15T17:20:29.288Z,9.40
2023-02-15T17:23:32.046Z,9.30
2023-02-15T17:26:24.007Z,9.20
2023-02-15T17:29:38.592Z,9.00
2023-02-15T17:32:30.312Z,8.90
2023-02-15T17:35:26.682Z,8.70
2023-02-15T17:38:21.424Z,8.70
2023-02-15T17:41:07.448Z,8.60
2023-02-15T17:43:52.670Z,8.50
2023-02-15T17:46:38.556Z,8.30
2023-02-15T17:49:34.906Z,8.30
2023-02-15T17:52:20.154Z,8.10
2023-02-15T17:55:32.223Z,8.10
2023-02-15T17:58:19.728Z,8.00
2023-02-15T18:01:33.509Z,7.80
2023-02-15T18:04:38.023Z,7.90
2023-02-15T18:07:42.536Z,8.50
2023-02-15T18:10:46.212Z,7.40
2023-02-15T18:13:31.450Z,7.20
2023-02-15T18:16:22.317Z,6.80
2023-02-15T18:19:14.120Z,6.70
2023-02-15T18:21:59.643Z,6.70
2023-02-15T18:24:45.988Z,6.60
2023-02-15T18:27:31.308Z,6.40
2023-02-15T18:30:21.823Z,6.40
2023-02-15T18:33:07.098Z,6.40
2023-02-15T18:35:52.919Z,6.30
2023-02-15T18:38:38.412Z,6.10
2023-02-15T18:41:24.360Z,6.00
2023-02-15T18:44:13.104Z,6.00
2023-02-15T18:46:58.790Z,5.90
2023-02-15T18:49:44.053Z,6.00
2023-02-15T18:52:34.693Z,5.90
2023-02-15T18:55:28.276Z,5.90
2023-02-15T18:58:17.537Z,5.70
2023-02-15T19:01:03.675Z,5.70
2023-02-15T19:03:51.367Z,5.70
2023-02-15T19:06:40.271Z,5.50
2023-02-15T19:09:27.809Z,5.40
2023-02-15T19:12:13.859Z,5.30
2023-02-15T19:14:59.445Z,5.40
2023-02-15T19:17:45.166Z,5.30
2023-02-15T19:20:35.033Z,5.30
2023-02-15T19:23:24.647Z,5.20
2023-02-15T19:26:10.960Z,5.20
2023-02-15T19:28:56.291Z,5.10
2023-02-15T19:31:42.330Z,5.00
2023-02-15T19:34:27.899Z,5.00
2023-02-15T19:37:24.055Z,4.80
2023-02-15T19:40:28.997Z,5.00
2023-02-15T19:43:20.193Z,4.80
2023-02-15T19:46:05.994Z,4.90
2023-02-15T19:48:53.486Z,4.90
2023-02-15T19:51:39.734Z,4.70
2023-02-15T19:54:31.570Z,4.70
2023-02-15T19:57:17.226Z,4.80
2023-02-15T20:00:21.112Z,4.60
2023-02-15T20:03:07.425Z,4.50
2023-02-15T20:05:53.039Z,4.40
2023-02-15T20:08:38.304Z,4.40
2023-02-15T20:11:24.136Z,4.40
2023-02-15T20:14:14.088Z,4.40
2023-02-15T20:16:59.274Z,4.30
2023-02-15T20:19:46.140Z,4.10
2023-02-15T20:22:31.329Z,4.20
2023-02-15T20:25:22.033Z,4.00
2023-02-15T20:28:23.248Z,3.90
2023-02-15T20:31:15.528Z,3.80
2023-02-15T20:34:01.308Z,3.80
2023-02-15T20:36:46.762Z,3.60
2023-02-15T20:39:34.404Z,3.70
2023-02-15T20:42:19.827Z,4.80
2023-02-15T20:45:16.052Z,3.70
2023-02-15T20:48:02.117Z,3.70
2023-02-15T20:50:47.603Z,3.80
2023-02-15T20:53:33.170Z,3.60
2023-02-15T20:56:23.903Z,3.70
2023-02-15T20:59:35.733Z,3.80
2023-02-15T21:02:25.790Z,3.70
2023-02-15T21:05:19.014Z,3.60
2023-02-15T21:08:15.432Z,3.60
2023-02-15T21:11:01.912Z,3.40
2023-02-15T21:13:49.086Z,3.60
2023-02-15T21:16:34.651Z,3.60
2023-02-15T21:19:23.034Z,3.60
2023-02-15T21:22:12.589Z,4.30
2023-02-15T21:24:58.204Z,3.50
2023-02-15T21:27:44.419Z,3.40
2023-02-15T21:30:30.048Z,3.40
2023-02-15T21:33:16.255Z,3.40
2023-02-15T21:36:02.789Z,3.30
2023-02-15T21:38:48.623Z,3.40
2023-02-15T21:41:53.014Z,3.20
2023-02-15T21:44:57.488Z,3.10
2023-02-15T21:47:51.579Z,3.20
2023-02-15T21:50:55.402Z,3.10
2023-02-15T21:53:48.531Z,3.20
2023-02-15T21:56:34.131Z,3.10
2023-02-15T21:59:20.130Z,3.10
2023-02-15T22:02:30.994Z,3.00
2023-02-15T22:05:19.386Z,2.60
2023-02-15T22:08:13.512Z,2.80
2023-02-15T22:10:59.089Z,2.70
2023-02-15T22:13:45.556Z,2.90
2023-02-15T22:16:30.791Z,2.90
2023-02-15T22:19:16.423Z,2.80
2023-02-15T22:22:01.922Z,2.70
2023-02-15T22:24:47.756Z,2.80
2023-02-15T22:27:38.958Z,2.70
2023-02-15T22:30:30.848Z,2.60
2023-02-15T22:33:28.446Z,2.60
2023-02-15T22:36:28.719Z,3.40
2023-02-15T22:39:13.960Z,3.50
2023-02-15T22:41:59.682Z,2.50
2023-02-15T22:44:45.058Z,2.40
2023-02-15T22:47:32.214Z,2.40
2023-02-15T22:50:23.908Z,2.40
2023-02-15T22:53:09.780Z,2.50
2023-02-15T22:55:55.910Z,2.40
2023-02-15T22:58:41.430Z,2.30
2023-02-15T23:01:35.391Z,2.40
2023-02-15T23:04:24.401Z,2.30
2023-02-15T23:07:14.617Z,2.40
2023-02-15T23:10:00.165Z,2.20
2023-02-15T23:13:04.330Z,4.00
2023-02-15T23:15:52.908Z,2.30
2023-02-15T23:18:40.552Z,2.20
2023-02-15T23:21:29.754Z,2.30
2023-02-15T23:24:20.440Z,2.50
2023-02-15T23:27:24.502Z,2.10
2023-02-15T23:30:14.289Z,2.10
2023-02-15T23:32:59.925Z,2.20
2023-02-15T23:35:45.212Z,2.10
2023-02-15T23:38:32.584Z,2.10
2023-02-15T23:41:22.985Z,1.80
2023-02-15T23:44:10.898Z,1.70
2023-02-15T23:46:56.624Z,1.70
2023-02-15T23:49:42.163Z,1.70
2023-02-15T23:52:27.642Z,1.70
2023-02-15T23:55:14.389Z,1.70
2023-02-15T23:57:59.764Z,1.80
